createdAt,value
2018-06-15T00:04:17.237Z,12.97
2018-06-15T00:09:10.215Z,10.73
2018-06-15T00:14:03.175Z,7.53
2018-06-15T00:18:56.065Z,11.50
2018-06-15T00:23:48.968Z,12.80
2018-06-15T00:28:41.851Z,8.40
2018-06-15T00:33:34.726Z,9.37
2018-06-15T00:38:27.974Z,7.07
2018-06-15T00:43:20.880Z,9.83
2018-06-15T00:48:13.777Z,12.50
2018-06-15T00:53:06.630Z,14.40
2018-06-15T00:57:59.411Z,12.67
2018-06-15T01:02:52.288Z,11.83
2018-06-15T01:07:45.126Z,15.20
2018-06-15T01:12:38.098Z,11.33
2018-06-15T01:17:30.943Z,13.73
2018-06-15T01:22:23.839Z,13.53
2018-06-15T01:27:16.793Z,14.67
2018-06-15T01:32:09.671Z,12.97
2018-06-15T01:37:02.635Z,14.10
2018-06-15T01:41:55.589Z,14.67
2018-06-15T01:46:48.420Z,14.17
2018-06-15T01:51:41.293Z,14.43
2018-06-15T01:56:34.202Z,13.77
2018-06-15T02:01:27.275Z,15.33
2018-06-15T02:06:20.063Z,14.30
2018-06-15T02:11:12.990Z,14.63
2018-06-15T02:16:05.943Z,13.00
2018-06-15T02:20:58.853Z,18.47
2018-06-15T02:25:51.852Z,13.23
2018-06-15T02:30:44.745Z,16.63
2018-06-15T02:35:37.754Z,15.53
2018-06-15T02:40:30.659Z,17.73
2018-06-15T02:45:23.674Z,22.60
2018-06-15T02:50:16.632Z,21.70
2018-06-15T02:55:09.585Z,21.87
2018-06-15T03:00:02.599Z,19.57
2018-06-15T03:04:55.466Z,16.50
2018-06-15T03:09:48.377Z,19.23
2018-06-15T03:14:41.269Z,15.90
2018-06-15T03:19:34.212Z,16.50
2018-06-15T03:24:27.118Z,19.23
2018-06-15T03:29:19.982Z,20.80
2018-06-15T03:34:12.861Z,16.53
2018-06-15T03:39:09.017Z,20.97
2018-06-15T03:44:01.898Z,17.20
2018-06-15T03:48:55.206Z,18.53
2018-06-15T03:53:48.138Z,22.43
2018-06-15T03:58:41.134Z,21.97
2018-06-15T04:03:34.119Z,17.27
2018-06-15T04:08:27.009Z,23.23
2018-06-15T04:13:20.316Z,19.03
2018-06-15T04:18:13.176Z,17.83
2018-06-15T04:23:06.369Z,19.27
2018-06-15T04:27:59.243Z,18.10
2018-06-15T04:32:52.202Z,22.73
2018-06-15T04:37:45.432Z,20.63
2018-06-15T04:42:38.265Z,24.50
2018-06-15T04:47:31.064Z,23.10
2018-06-15T04:52:24.070Z,20.77
2018-06-15T04:57:16.963Z,19.73
2018-06-15T05:02:09.836Z,18.67
2018-06-15T05:07:02.741Z,18.13
2018-06-15T05:11:55.724Z,20.07
2018-06-15T05:16:48.668Z,18.47
2018-06-15T05:21:41.553Z,17.50
2018-06-15T05:26:34.526Z,21.53
2018-06-15T05:31:27.468Z,17.23
2018-06-15T05:36:20.334Z,18.67
2018-06-15T05:41:13.215Z,18.27
2018-06-15T05:46:06.489Z,19.40
2018-06-15T05:50:59.399Z,17.60
2018-06-15T05:55:52.351Z,17.53
2018-06-15T06:00:45.300Z,22.20
2018-06-15T06:05:38.327Z,19.73
2018-06-15T06:10:31.233Z,20.40
2018-06-15T06:15:24.101Z,18.97
2018-06-15T06:20:17.077Z,21.20
2018-06-15T06:25:10.026Z,20.10
2018-06-15T06:30:02.986Z,22.20
2018-06-15T06:34:55.871Z,20.57
2018-06-15T06:39:48.806Z,17.57
2018-06-15T06:44:41.729Z,31.10
2018-06-15T06:49:34.622Z,16.77
2018-06-15T06:54:27.652Z,22.77
2018-06-15T06:59:20.554Z,47.37
2018-06-15T07:04:13.485Z,17.37
2018-06-15T07:09:07.173Z,20.70
2018-06-15T07:14:00.237Z,21.20
2018-06-15T07:18:53.722Z,19.43
2018-06-15T07:23:46.639Z,22.43
2018-06-15T07:28:39.561Z,29.07
2018-06-15T07:33:32.532Z,24.67
2018-06-15T07:38:25.443Z,21.90
2018-06-15T07:43:18.410Z,18.80
2018-06-15T07:48:11.561Z,23.73
2018-06-15T07:53:04.499Z,17.40
2018-06-15T07:57:57.443Z,19.90
2018-06-15T08:02:51.105Z,20.23
2018-06-15T08:07:44.016Z,16.77
2018-06-15T08:12:37.042Z,14.50
2018-06-15T08:17:29.914Z,13.13
2018-06-15T08:22:22.865Z,16.43
2018-06-15T08:27:15.825Z,15.10
2018-06-15T08:32:08.696Z,13.10
2018-06-15T08:37:01.644Z,15.83
2018-06-15T08:41:54.667Z,11.67
2018-06-15T08:46:47.723Z,11.80
2018-06-15T08:51:40.542Z,11.97
2018-06-15T08:56:33.448Z,11.47
2018-06-15T09:01:26.406Z,12.43
2018-06-15T09:06:19.474Z,14.53
2018-06-15T09:11:12.487Z,11.10
2018-06-15T09:16:05.446Z,12.37
2018-06-15T09:20:58.358Z,8.37
2018-06-15T09:25:52.460Z,5.80
2018-06-15T09:30:45.354Z,7.87
2018-06-15T09:35:38.211Z,8.13
2018-06-15T09:40:31.065Z,6.73
2018-06-15T09:45:23.975Z,3.50
2018-06-15T09:50:16.900Z,5.60
2018-06-15T09:55:09.784Z,3.73
2018-06-15T10:00:02.765Z,5.67
2018-06-15T10:04:55.633Z,4.03
2018-06-15T10:09:48.746Z,3.50
2018-06-15T10:14:41.685Z,4.73
2018-06-15T10:19:34.590Z,5.00
2018-06-15T10:24:27.429Z,3.10
2018-06-15T10:29:20.253Z,7.30
2018-06-15T10:34:13.221Z,2.77
2018-06-15T10:39:09.115Z,8.17
2018-06-15T10:44:02.041Z,4.83
2018-06-15T10:48:54.986Z,9.10
2018-06-15T10:53:47.862Z,4.83
2018-06-15T10:58:40.681Z,7.80
2018-06-15T11:03:33.582Z,5.77
2018-06-15T11:08:26.625Z,7.03
2018-06-15T11:13:19.508Z,9.40
2018-06-15T11:18:12.405Z,6.97
2018-06-15T11:23:05.277Z,5.60
2018-06-15T11:27:58.155Z,7.23
2018-06-15T11:32:51.056Z,6.20
2018-06-15T11:37:43.853Z,6.23
2018-06-15T11:42:36.712Z,7.60
2018-06-15T11:47:29.651Z,8.10
2018-06-15T11:52:22.605Z,7.00
2018-06-15T11:57:15.518Z,5.80
2018-06-15T12:02:08.378Z,9.87
2018-06-15T12:07:01.392Z,8.97
2018-06-15T12:11:54.410Z,5.83
2018-06-15T12:16:47.484Z,7.73
2018-06-15T12:21:40.440Z,5.07
2018-06-15T12:26:33.321Z,4.90
2018-06-15T12:31:26.298Z,6.77
2018-06-15T12:36:19.257Z,7.67
2018-06-15T12:41:12.557Z,5.50
2018-06-15T12:46:05.553Z,5.60
2018-06-15T12:50:58.371Z,6.03
2018-06-15T12:55:51.278Z,4.20
2018-06-15T13:00:44.135Z,6.57
2018-06-15T13:05:37.001Z,7.50
2018-06-15T13:10:29.875Z,6.73
2018-06-15T13:15:22.758Z,4.50
2018-06-15T13:20:15.576Z,7.00
2018-06-15T13:25:08.470Z,5.67
2018-06-15T13:30:01.359Z,6.10
2018-06-15T13:34:54.270Z,7.43
2018-06-15T13:39:47.114Z,6.23
2018-06-15T13:44:40.014Z,6.37
2018-06-15T13:49:33.048Z,9.37
2018-06-15T13:59:50.764Z,7.63
2018-06-15T14:04:43.725Z,5.27
2018-06-15T14:09:36.677Z,4.30
2018-06-15T14:14:29.771Z,6.03
2018-06-15T14:19:22.581Z,5.63
2018-06-15T14:24:15.490Z,4.77
2018-06-15T14:29:08.441Z,7.27
2018-06-15T14:34:01.226Z,5.53
2018-06-15T14:38:54.199Z,11.43
2018-06-15T14:43:47.097Z,5.67
2018-06-15T14:48:39.975Z,6.20
2018-06-15T14:53:32.846Z,5.43
2018-06-15T14:58:25.741Z,7.47
2018-06-15T15:03:18.647Z,7.20
2018-06-15T15:08:11.545Z,5.33
2018-06-15T15:13:04.516Z,8.63
2018-06-15T15:17:57.406Z,7.73
2018-06-15T15:22:50.350Z,5.80
2018-06-15T15:27:43.314Z,5.23
2018-06-15T15:32:36.273Z,6.80
2018-06-15T15:37:29.165Z,6.47
2018-06-15T15:42:21.995Z,7.17
2018-06-15T15:47:14.851Z,6.63
2018-06-15T15:52:07.757Z,9.73
2018-06-15T15:57:00.629Z,5.43
2018-06-15T16:01:53.476Z,5.73
2018-06-15T16:06:46.370Z,6.33
2018-06-15T16:11:39.752Z,5.20
2018-06-15T16:16:32.597Z,7.90
2018-06-15T16:21:25.484Z,4.43
2018-06-15T16:26:18.440Z,8.37
2018-06-15T16:31:11.366Z,5.20
2018-06-15T16:36:04.441Z,5.03
2018-06-15T16:40:57.302Z,7.83
2018-06-15T16:45:50.376Z,4.73
2018-06-15T16:50:43.235Z,5.73
2018-06-15T16:55:36.105Z,4.93
2018-06-15T17:00:28.944Z,4.33
2018-06-15T17:05:21.768Z,5.80
2018-06-15T17:10:14.601Z,7.90
2018-06-15T17:15:07.508Z,4.80
2018-06-15T17:20:00.480Z,8.27
2018-06-15T17:24:53.346Z,5.70
2018-06-15T17:29:46.384Z,9.20
2018-06-15T17:34:39.287Z,6.97
2018-06-15T17:39:32.120Z,6.40
2018-06-15T17:44:25.093Z,6.07
2018-06-15T17:49:17.970Z,9.50
2018-06-15T17:54:10.821Z,9.10
2018-06-15T17:59:03.848Z,6.93
2018-06-15T18:03:56.745Z,4.70
2018-06-15T18:08:49.876Z,4.83
2018-06-15T18:13:42.817Z,6.67
2018-06-15T18:18:35.869Z,4.97
2018-06-15T18:23:28.721Z,6.93
2018-06-15T18:28:21.640Z,6.07
2018-06-15T18:33:14.478Z,7.17
2018-06-15T18:38:07.495Z,5.03
2018-06-15T18:43:00.312Z,8.53
2018-06-15T18:47:53.251Z,5.77
2018-06-15T18:52:46.205Z,5.07
2018-06-15T18:57:39.229Z,6.33
2018-06-15T19:02:32.152Z,5.73
2018-06-15T19:07:25.037Z,5.00
2018-06-15T19:12:17.961Z,7.47
2018-06-15T19:17:11.027Z,9.43
2018-06-15T19:22:03.869Z,6.10
2018-06-15T19:26:56.701Z,7.37
2018-06-15T19:31:49.692Z,6.47
2018-06-15T19:36:42.607Z,6.27
2018-06-15T19:41:35.910Z,8.53
2018-06-15T19:46:28.838Z,7.53
2018-06-15T19:51:21.778Z,8.27
2018-06-15T19:56:14.678Z,7.13
2018-06-15T20:01:07.572Z,6.00
2018-06-15T20:06:00.715Z,8.03
2018-06-15T20:10:53.577Z,7.23
2018-06-15T20:15:46.497Z,7.97
2018-06-15T20:20:39.418Z,8.73
2018-06-15T20:25:32.241Z,7.23
2018-06-15T20:30:25.152Z,7.80
2018-06-15T20:35:17.943Z,10.27
2018-06-15T20:40:10.855Z,7.67
2018-06-15T20:45:04.017Z,9.07
2018-06-15T20:49:56.872Z,13.17
2018-06-15T20:54:49.812Z,8.57
2018-06-15T20:59:42.637Z,8.73
2018-06-15T21:04:35.568Z,7.77
2018-06-15T21:09:28.448Z,6.50
2018-06-15T21:14:21.325Z,7.80
2018-06-15T21:19:14.248Z,7.27
2018-06-15T21:24:07.070Z,6.57
2018-06-15T21:28:59.903Z,8.13
2018-06-15T21:33:52.796Z,9.70
2018-06-15T21:38:45.753Z,7.73
2018-06-15T21:43:38.640Z,8.23
2018-06-15T21:48:31.553Z,7.30
2018-06-15T21:53:24.458Z,8.83
2018-06-15T21:58:18.362Z,7.90
2018-06-15T22:03:11.165Z,8.17
2018-06-15T22:08:04.225Z,8.50
2018-06-15T22:12:57.224Z,8.60
2018-06-15T22:17:50.108Z,7.43
2018-06-15T22:22:42.910Z,9.27
2018-06-15T22:27:35.899Z,10.00
2018-06-15T22:32:28.791Z,8.37
2018-06-15T22:37:21.659Z,7.47
2018-06-15T22:42:14.575Z,8.27
2018-06-15T22:47:07.431Z,8.93
2018-06-15T22:52:00.357Z,9.23
2018-06-15T22:56:53.218Z,12.30
2018-06-15T23:01:46.111Z,9.77
2018-06-15T23:06:39.191Z,10.97
2018-06-15T23:11:32.134Z,10.93
2018-06-15T23:16:25.045Z,15.03
2018-06-15T23:21:17.953Z,14.10
2018-06-15T23:26:10.881Z,13.73
2018-06-15T23:31:03.802Z,11.03
2018-06-15T23:35:56.621Z,11.80
2018-06-15T23:40:49.526Z,13.00
2018-06-15T23:45:42.394Z,11.03
2018-06-15T23:50:35.204Z,14.77
2018-06-15T23:55:28.009Z,13.67
